Time;durP1;ratioP1;P1;durP2;ratioP2;P2;SDS_P1;SDS_P2;PMS_P1;PMS_P2;Temp;Humidity;BMP_temperature;BMP_pressure;BME280_temperature;BME280_humidity;BME280_pressure;Samples;Min_cycle;Max_cycle;Signal;HPM_P1;HPM_P2
2024/01/30 00:00:24;;;;;;;7.70;2.42;;;;;;;1.32;93.50;101823.78;10368879;28;20050;-72
2024/01/30 00:05:27;;;;;;;7.13;2.70;;;;;;;1.40;93.27;101826.38;10370443;28;20046;-72
2024/01/30 00:10:29;;;;;;;5.13;2.30;;;;;;;1.34;93.22;101822.56;10370050;28;20140;-73
2024/01/30 00:15:31;;;;;;;4.60;2.17;;;;;;;1.46;92.62;101823.72;10385824;28;20046;-72
2024/01/30 00:20:33;;;;;;;5.13;2.20;;;;;;;1.46;92.00;101831.84;10385624;28;20052;-72
2024/01/30 00:25:36;;;;;;;6.00;2.17;;;;;;;1.21;93.33;101835.91;10353588;28;20042;-72
2024/01/30 00:30:38;;;;;;;7.85;2.42;;;;;;;1.28;93.80;101839.56;10385437;28;20251;-72
2024/01/30 00:35:40;;;;;;;4.22;1.95;;;;;;;1.14;93.68;101848.53;10385102;28;20513;-72
2024/01/30 00:40:43;;;;;;;4.15;2.47;;;;;;;1.02;94.53;101850.03;10355606;28;20037;-72
2024/01/30 00:45:45;;;;;;;6.07;2.35;;;;;;;1.12;94.52;101850.59;10388605;28;20061;-72
2024/01/30 00:50:47;;;;;;;7.93;2.80;;;;;;;1.11;94.66;101865.13;10400557;28;20162;-71
2024/01/30 00:55:49;;;;;;;6.88;2.47;;;;;;;0.92;94.90;101860.31;10364657;28;20049;-71
2024/01/30 01:00:52;;;;;;;6.00;2.65;;;;;;;0.80;95.26;101860.78;10368706;28;20413;-71
2024/01/30 01:05:54;;;;;;;4.35;2.30;;;;;;;0.84;96.29;101870.19;10384323;28;20037;-71
2024/01/30 01:10:56;;;;;;;6.90;2.55;;;;;;;0.74;96.11;101877.75;10367912;28;20046;-71
2024/01/30 01:15:59;;;;;;;7.40;2.80;;;;;;;0.64;96.73;101871.75;10369067;28;20042;-71
2024/01/30 01:21:01;;;;;;;8.57;2.45;;;;;;;0.80;96.65;101885.09;10368191;28;20049;-71
2024/01/30 01:26:05;;;;;;;4.80;2.47;;;;;;;0.80;96.81;101884.25;10401367;28;20042;-71
2024/01/30 01:31:09;;;;;;;6.82;2.60;;;;;;;0.70;96.72;101895.34;10384415;28;20044;-71
2024/01/30 01:36:11;;;;;;;5.13;2.35;;;;;;;0.59;97.16;101893.09;10384268;28;20034;-71
2024/01/30 01:41:14;;;;;;;7.28;2.60;;;;;;;0.65;97.51;101897.75;10367385;28;20053;-72
2024/01/30 01:46:17;;;;;;;6.63;2.65;;;;;;;0.88;97.40;101912.03;10367668;28;20143;-72
2024/01/30 01:51:19;;;;;;;10.90;2.92;;;;;;;0.60;97.45;101922.63;10383956;28;20042;-72
2024/01/30 01:56:23;;;;;;;6.35;2.20;;;;;;;0.84;97.55;101926.09;10367484;28;20049;-72
2024/01/30 02:01:26;;;;;;;5.43;2.28;;;;;;;1.06;96.83;101941.41;10351093;28;20046;-72
2024/01/30 02:06:28;;;;;;;4.80;2.53;;;;;;;0.94;96.53;101945.56;10367472;28;20247;-72
2024/01/30 02:11:31;;;;;;;9.60;2.80;;;;;;;0.73;96.26;101954.41;10351344;28;20453;-72
2024/01/30 02:16:34;;;;;;;7.57;2.47;;;;;;;0.67;97.44;101957.00;10367311;28;20044;-72
2024/01/30 02:21:37;;;;;;;6.07;2.42;;;;;;;0.83;97.84;101964.94;10370167;28;20042;-71
2024/01/30 02:26:40;;;;;;;7.82;3.03;;;;;;;0.81;96.58;101962.41;10357924;28;20049;-71
2024/01/30 02:31:42;;;;;;;5.93;2.65;;;;;;;0.74;97.29;101956.09;10374119;28;20046;-71
2024/01/30 02:36:45;;;;;;;8.50;2.40;;;;;;;0.78;97.12;101956.56;10390056;28;20413;-71
2024/01/30 02:41:48;;;;;;;5.55;2.60;;;;;;;0.74;97.30;101966.91;10373349;28;20045;-71
2024/01/30 02:46:51;;;;;;;4.10;2.08;;;;;;;0.73;97.06;101962.53;10373470;28;20044;-71
2024/01/30 02:51:54;;;;;;;5.13;2.45;;;;;;;0.82;97.17;101958.69;10406692;28;20049;-72
2024/01/30 02:56:57;;;;;;;4.45;2.40;;;;;;;0.91;96.69;101967.56;10372640;28;20049;-72
2024/01/30 03:01:59;;;;;;;8.30;2.47;;;;;;;0.81;96.19;101970.53;10356559;28;20085;-72
2024/01/30 03:07:01;;;;;;;6.78;2.97;;;;;;;1.11;96.75;101979.50;10372623;28;20322;-72
2024/01/30 03:12:04;;;;;;;6.30;2.42;;;;;;;1.01;95.94;101984.34;10372269;28;20041;-72
2024/01/30 03:17:06;;;;;;;7.32;2.08;;;;;;;1.01;95.76;101991.59;10371714;28;20067;-72
2024/01/30 03:22:09;;;;;;;10.48;3.00;;;;;;;1.11;95.54;101994.88;10355844;28;20324;-72
2024/01/30 03:27:14;;;;;;;6.20;2.75;;;;;;;1.22;94.63;102001.72;10356359;28;20503;-72
2024/01/30 03:32:19;;;;;;;5.68;1.92;;;;;;;1.11;94.77;102013.81;10371694;28;20046;-72
2024/01/30 03:37:21;;;;;;;9.20;3.05;;;;;;;0.93;94.68;102006.06;10355410;28;20498;-73
2024/01/30 03:42:23;;;;;;;5.00;2.25;;;;;;;1.12;95.00;102002.81;10371081;28;20049;-72
2024/01/30 03:47:25;;;;;;;4.43;2.47;;;;;;;1.03;94.64;101992.25;10371037;28;20045;-72
2024/01/30 03:52:28;;;;;;;9.13;2.88;;;;;;;1.13;94.66;101992.84;10370785;28;20497;-72
2024/01/30 03:57:30;;;;;;;4.22;2.00;;;;;;;1.41;93.61;102001.97;10354175;28;20054;-72
2024/01/30 04:02:32;;;;;;;6.63;2.33;;;;;;;1.02;92.96;101995.97;10355686;28;20049;-72
2024/01/30 04:07:34;;;;;;;3.63;2.28;;;;;;;0.78;94.09;102006.03;10389697;28;20387;-72
2024/01/30 04:12:37;;;;;;;7.25;2.13;;;;;;;0.64;95.96;102008.69;10355441;28;20046;-72
2024/01/30 04:17:39;;;;;;;4.65;2.30;;;;;;;0.77;96.09;102003.50;10353622;28;20050;-72
2024/01/30 04:22:45;;;;;;;3.70;1.98;;;;;;;0.82;95.55;101996.53;10370297;28;20042;-72
2024/01/30 04:27:49;;;;;;;7.00;2.22;;;;;;;0.85;96.16;102001.56;10369784;28;20060;-72
2024/01/30 04:32:51;;;;;;;6.68;2.28;;;;;;;0.80;95.18;102009.38;10369374;28;20048;-71
2024/01/30 04:37:54;;;;;;;8.98;2.60;;;;;;;1.38;95.05;102009.59;10368963;28;20567;-71
2024/01/30 04:42:56;;;;;;;8.88;2.92;;;;;;;0.96;94.04;102002.97;10384177;28;20041;-71
2024/01/30 04:47:58;;;;;;;5.43;2.08;;;;;;;1.10;95.32;102001.31;10368922;28;20046;-73
2024/01/30 04:53:00;;;;;;;5.75;2.47;;;;;;;1.08;95.36;102008.78;10384669;28;20046;-71
2024/01/30 04:58:03;;;;;;;6.38;3.22;;;;;;;0.88;94.93;102011.19;10352330;28;20038;-71
2024/01/30 05:03:06;;;;;;;4.15;2.90;;;;;;;1.12;95.97;102016.31;10368134;28;20054;-71
2024/01/30 05:08:09;;;;;;;6.88;2.90;;;;;;;1.06;94.27;102013.53;10368348;28;20049;-71
2024/01/30 05:13:13;;;;;;;5.95;3.30;;;;;;;0.68;95.09;102027.03;10384800;28;20053;-72
2024/01/30 05:18:16;;;;;;;4.75;2.67;;;;;;;0.67;96.28;102041.56;10367564;28;20402;-72
2024/01/30 05:23:18;;;;;;;8.57;2.80;;;;;;;1.10;97.65;102058.09;10352228;28;20042;-70
2024/01/30 05:28:20;;;;;;;13.45;2.97;;;;;;;0.53;96.41;102055.91;10383854;28;20042;-70
2024/01/30 05:33:23;;;;;;;6.38;2.28;;;;;;;0.33;97.36;102058.19;10383670;28;20212;-71
2024/01/30 05:38:27;;;;;;;7.30;2.85;;;;;;;0.20;97.99;102056.13;10383988;28;20068;-71
2024/01/30 05:43:29;;;;;;;8.52;2.78;;;;;;;0.30;99.20;102072.91;10351025;28;20049;-70
2024/01/30 05:48:31;;;;;;;5.55;2.78;;;;;;;0.12;100.00;102058.00;10367418;28;20402;-71
2024/01/30 05:53:34;;;;;;;6.63;2.95;;;;;;;0.49;100.00;102066.19;10367719;28;20062;-70
2024/01/30 05:58:37;;;;;;;8.68;3.42;;;;;;;0.44;100.00;102071.28;10392072;28;20037;-71
2024/01/30 06:03:40;;;;;;;7.18;3.08;;;;;;;0.41;100.00;102079.75;10358532;28;20045;-70
2024/01/30 06:08:43;;;;;;;10.88;3.03;;;;;;;0.36;99.95;102073.22;10408048;28;20045;-70
2024/01/30 06:13:47;;;;;;;5.75;3.00;;;;;;;0.40;99.87;102067.28;10358726;28;20041;-70
2024/01/30 06:18:49;;;;;;;8.55;3.45;;;;;;;0.50;100.00;102075.13;10373859;28;20052;-70
2024/01/30 06:23:52;;;;;;;9.15;3.90;;;;;;;0.61;100.00;102074.72;10374046;28;20049;-70
2024/01/30 06:28:56;;;;;;;7.97;3.70;;;;;;;0.56;100.00;102087.94;10390394;28;20045;-71
2024/01/30 06:33:58;;;;;;;10.73;4.03;;;;;;;0.34;100.00;102089.59;10389634;28;20042;-70
2024/01/30 06:39:02;;;;;;;8.63;4.07;;;;;;;0.20;100.00;102082.25;10406849;28;20492;-71
2024/01/30 06:44:06;;;;;;;6.45;4.20;;;;;;;0.09;100.00;102091.59;10389140;28;20037;-71
2024/01/30 06:49:08;;;;;;;6.65;3.40;;;;;;;0.22;100.00;102112.63;10373392;28;20528;-70
2024/01/30 06:54:11;;;;;;;13.02;4.28;;;;;;;0.20;100.00;102099.31;10356129;28;20057;-71
2024/01/30 06:59:13;;;;;;;8.23;3.33;;;;;;;0.32;100.00;102107.81;10388745;28;20053;-70
2024/01/30 07:04:16;;;;;;;6.35;3.53;;;;;;;0.23;100.00;102104.34;10388650;28;20057;-71
2024/01/30 07:09:19;;;;;;;8.07;3.97;;;;;;;0.23;100.00;102104.34;10355168;28;20054;-70
2024/01/30 07:14:21;;;;;;;7.03;3.47;;;;;;;0.39;100.00;102105.25;10388210;28;20049;-71
2024/01/30 07:19:23;;;;;;;4.32;3.13;;;;;;;0.45;100.00;102109.94;10388427;28;20053;-71
2024/01/30 07:24:25;;;;;;;11.07;4.25;;;;;;;0.38;100.00;102103.59;10372045;28;20048;-70
2024/01/30 07:29:27;;;;;;;7.95;3.70;;;;;;;0.63;100.00;102097.00;10375057;28;20034;-71
2024/01/30 07:34:30;;;;;;;9.07;3.85;;;;;;;0.61;100.00;102101.72;10373918;28;20048;-70
2024/01/30 07:39:32;;;;;;;5.25;2.88;;;;;;;0.38;100.00;102103.59;10371526;28;20042;-70
2024/01/30 07:44:35;;;;;;;9.25;3.67;;;;;;;0.46;100.00;102106.22;10370400;28;20046;-70
2024/01/30 07:49:37;;;;;;;8.50;3.50;;;;;;;0.43;100.00;102112.00;10387549;28;20041;-70
2024/01/30 07:54:40;;;;;;;6.90;3.50;;;;;;;0.52;100.00;102103.66;10370479;28;20053;-71
2024/01/30 07:59:46;;;;;;;7.80;3.67;;;;;;;0.59;100.00;102103.78;10369832;28;20128;-71
2024/01/30 08:04:49;;;;;;;9.00;3.60;;;;;;;0.54;100.00;102115.13;10386510;28;20037;-71
2024/01/30 08:09:51;;;;;;;11.63;3.30;;;;;;;0.37;100.00;102112.72;10354029;28;20056;-71
2024/01/30 08:14:54;;;;;;;6.50;3.17;;;;;;;0.59;100.00;102114.59;10386019;28;20053;-71
2024/01/30 08:19:56;;;;;;;10.18;3.50;;;;;;;0.64;100.00;102112.16;10352505;28;20452;-71
2024/01/30 08:24:59;;;;;;;5.05;2.60;;;;;;;0.81;100.00;102118.28;10353507;28;20045;-71
2024/01/30 08:30:02;;;;;;;11.73;3.80;;;;;;;0.75;100.00;102119.88;10353201;28;20536;-71
2024/01/30 08:35:06;;;;;;;11.05;3.72;;;;;;;0.68;99.05;102112.66;10385528;28;20038;-70
2024/01/30 08:40:08;;;;;;;5.45;3.22;;;;;;;0.37;100.00;102120.81;10337228;28;20165;-70
2024/01/30 08:45:11;;;;;;;9.82;3.08;;;;;;;0.65;100.00;102123.81;10384797;28;20053;-70
2024/01/30 08:50:14;;;;;;;7.40;3.28;;;;;;;1.04;100.00;102134.50;10368265;28;20049;-70
2024/01/30 08:55:16;;;;;;;8.02;3.60;;;;;;;1.39;100.00;102133.00;10367785;28;20050;-70
2024/01/30 09:00:18;;;;;;;7.20;3.67;;;;;;;1.11;98.22;102136.31;10352245;28;20151;-70
2024/01/30 09:05:21;;;;;;;7.97;3.00;;;;;;;1.50;98.25;102146.91;10384247;28;20045;-70
2024/01/30 09:10:23;;;;;;;12.05;4.18;;;;;;;1.45;97.01;102138.53;10384052;28;20049;-70
2024/01/30 09:15:25;;;;;;;7.22;3.40;;;;;;;1.30;97.38;102145.75;10351946;28;20414;-70
2024/01/30 09:20:29;;;;;;;8.20;3.40;;;;;;;1.15;96.20;102151.13;10368385;28;20505;-70
2024/01/30 09:25:31;;;;;;;9.15;4.20;;;;;;;1.49;95.82;102155.22;10401395;28;20048;-73
2024/01/30 09:30:33;;;;;;;10.07;4.30;;;;;;;1.93;95.40;102157.97;10386974;28;20448;-71
2024/01/30 09:35:37;;;;;;;9.13;4.60;;;;;;;2.06;94.00;102160.81;10392214;28;20046;-71
2024/01/30 09:40:39;;;;;;;10.43;4.03;;;;;;;2.04;92.48;102157.47;10359443;28;20045;-71
2024/01/30 09:45:43;;;;;;;6.90;3.63;;;;;;;1.74;92.06;102158.53;10391769;28;20049;-71
2024/01/30 09:50:46;;;;;;;11.52;4.65;;;;;;;1.60;92.61;102156.63;10391588;28;20060;-71
2024/01/30 09:55:50;;;;;;;6.43;3.90;;;;;;;1.65;91.90;102159.63;10408734;28;20045;-71
2024/01/30 10:00:53;;;;;;;8.85;3.63;;;;;;;2.29;93.13;102154.47;10374456;28;20050;-73
2024/01/30 10:05:57;;;;;;;8.15;3.90;;;;;;;1.71;90.66;102157.00;10374988;28;20046;-71
2024/01/30 10:10:59;;;;;;;11.98;4.38;;;;;;;1.81;90.38;102159.44;10374549;28;20397;-71
2024/01/30 10:16:02;;;;;;;10.50;4.65;;;;;;;1.64;92.89;102166.91;10390445;28;20037;-71
2024/01/30 10:21:05;;;;;;;12.45;3.88;;;;;;;1.77;91.91;102167.09;10374402;28;20394;-71
2024/01/30 10:26:07;;;;;;;12.80;4.10;;;;;;;1.89;91.36;102170.16;10373822;28;20045;-71
2024/01/30 10:31:10;;;;;;;9.48;3.90;;;;;;;1.81;90.98;102167.56;10373486;28;20041;-71
2024/01/30 10:36:14;;;;;;;8.00;5.00;;;;;;;1.74;90.55;102164.78;10373716;28;20443;-71
2024/01/30 10:41:19;;;;;;;9.27;4.43;;;;;;;1.46;90.98;102161.84;10356379;28;20033;-72
2024/01/30 10:46:26;;;;;;;6.53;3.88;;;;;;;1.32;91.95;102165.34;10372907;28;20044;-71
2024/01/30 10:51:28;;;;;;;11.50;3.90;;;;;;;1.43;92.13;102162.22;10391741;28;20409;-71
2024/01/30 10:56:33;;;;;;;9.85;3.95;;;;;;;1.40;92.08;102167.16;10367802;28;20050;-71
2024/01/30 11:01:35;;;;;;;8.52;3.50;;;;;;;1.28;92.47;102158.63;10349021;28;20042;-71
2024/01/30 11:06:42;;;;;;;10.13;3.47;;;;;;;1.50;93.34;102168.56;10332229;28;20042;-72
2024/01/30 11:12:01;;;;;;;6.57;3.88;;;;;;;1.32;93.00;102165.34;10347542;28;20123;-71
2024/01/30 11:17:03;;;;;;;10.15;3.28;;;;;;;1.28;92.60;102171.31;10348107;28;20042;-73
2024/01/30 11:22:10;;;;;;;7.78;3.50;;;;;;;1.14;93.55;102168.38;10347550;28;20042;-71
2024/01/30 11:27:13;;;;;;;8.95;3.75;;;;;;;1.28;93.87;102171.31;10346952;28;20522;-71
2024/01/30 11:32:23;;;;;;;9.65;3.15;;;;;;;1.46;93.77;102164.53;10362920;28;20046;-72
2024/01/30 11:37:27;;;;;;;6.55;3.70;;;;;;;1.42;92.13;102163.22;10315443;28;20050;-70
2024/01/30 11:42:30;;;;;;;9.48;3.35;;;;;;;1.18;92.88;102174.25;10347128;28;20038;-70
2024/01/30 11:47:35;;;;;;;8.90;3.88;;;;;;;1.27;94.40;102175.88;10346317;28;20041;-71
2024/01/30 11:52:38;;;;;;;9.98;3.55;;;;;;;1.24;93.80;102178.94;10330236;28;20049;-70
2024/01/30 11:57:41;;;;;;;9.27;3.88;;;;;;;1.40;94.27;102167.16;10370358;28;20176;-72
2024/01/30 12:02:44;;;;;;;9.77;3.70;;;;;;;1.58;93.95;102172.22;10370250;28;20044;-72
2024/01/30 12:07:46;;;;;;;8.20;3.05;;;;;;;1.80;93.84;102172.13;10370232;28;20054;-72
2024/01/30 12:12:52;;;;;;;12.88;3.92;;;;;;;1.71;93.57;102165.13;10369862;28;20048;-71
2024/01/30 12:18:06;;;;;;;13.15;3.95;;;;;;;1.80;93.30;102153.19;10370541;28;20532;-73
2024/01/30 12:23:09;;;;;;;10.15;4.22;;;;;;;2.03;92.58;102157.66;10369770;28;20049;-73
2024/01/30 12:28:11;;;;;;;11.05;4.40;;;;;;;1.64;91.31;102160.66;10369115;28;20050;-73
2024/01/30 12:33:18;;;;;;;6.68;3.22;;;;;;;1.85;92.45;102143.66;10369204;28;20030;-73
2024/01/30 12:38:20;;;;;;;8.68;4.13;;;;;;;1.96;92.56;102149.47;10353142;28;20041;-73
2024/01/30 12:43:24;;;;;;;7.90;4.13;;;;;;;1.88;92.18;102146.84;10352688;28;20516;-73
2024/01/30 12:48:28;;;;;;;9.52;4.10;;;;;;;1.75;91.90;102146.69;10352823;28;20042;-73
2024/01/30 12:53:31;;;;;;;8.45;4.25;;;;;;;1.74;92.10;102147.69;10402390;28;20510;-73
2024/01/30 12:58:33;;;;;;;9.70;4.07;;;;;;;1.68;92.37;102153.84;10367485;28;20104;-72
2024/01/30 13:03:35;;;;;;;10.68;4.35;;;;;;;1.45;93.03;102149.34;10363424;28;20038;-71
2024/01/30 13:08:38;;;;;;;9.98;3.60;;;;;;;1.47;93.90;102152.69;10384393;28;20037;-71
2024/01/30 13:13:41;;;;;;;13.10;4.70;;;;;;;1.70;93.88;102149.06;10352504;28;20045;-70
2024/01/30 13:18:44;;;;;;;10.63;4.90;;;;;;;1.43;93.37;102151.38;10384037;28;20521;-72
2024/01/30 13:23:46;;;;;;;7.63;4.07;;;;;;;1.13;93.51;102155.88;10351763;28;20209;-72
2024/01/30 13:28:49;;;;;;;7.38;4.13;;;;;;;1.26;94.90;102140.91;10368041;28;20052;-73
2024/01/30 13:33:51;;;;;;;11.15;4.68;;;;;;;1.40;95.04;102145.50;10367521;28;20549;-73
2024/01/30 13:38:53;;;;;;;5.82;3.88;;;;;;;1.28;95.45;102149.69;10400818;28;20042;-73
2024/01/30 13:43:57;;;;;;;7.60;4.10;;;;;;;1.05;94.93;102152.41;10351685;28;20037;-71
2024/01/30 13:48:59;;;;;;;7.03;4.10;;;;;;;1.12;95.98;102150.66;10367750;28;20532;-71
2024/01/30 13:54:01;;;;;;;10.20;3.92;;;;;;;0.96;95.89;102148.94;10367517;28;20057;-71
2024/01/30 13:59:05;;;;;;;9.43;4.18;;;;;;;1.13;96.62;102155.88;10367059;28;20049;-71
2024/01/30 14:04:07;;;;;;;9.45;3.92;;;;;;;0.74;96.32;102153.31;10383419;28;20038;-71
2024/01/30 14:09:10;;;;;;;7.88;3.72;;;;;;;0.50;96.97;102153.44;10367423;28;20038;-71
2024/01/30 14:14:14;;;;;;;8.35;4.03;;;;;;;0.33;97.97;102165.34;10368434;28;20038;-72
2024/01/30 14:19:17;;;;;;;8.98;3.92;;;;;;;0.57;98.79;102151.75;10393062;28;20045;-73
2024/01/30 14:24:19;;;;;;;11.13;4.35;;;;;;;0.66;98.51;102164.16;10358482;28;20052;-72
2024/01/30 14:29:21;;;;;;;9.93;3.47;;;;;;;0.43;98.26;102157.91;10390420;28;20068;-72
2024/01/30 14:34:25;;;;;;;10.43;4.07;;;;;;;0.31;99.04;102162.84;10373650;28;20049;-73
2024/01/30 14:39:27;;;;;;;7.25;3.80;;;;;;;0.08;99.61;102168.19;10389944;28;20038;-72
2024/01/30 14:44:30;;;;;;;14.85;4.15;;;;;;;0.21;100.00;102159.53;10357107;28;20077;-72
2024/01/30 14:49:33;;;;;;;8.23;4.97;;;;;;;0.25;100.00;102159.00;10372774;28;20046;-72
2024/01/30 14:54:36;;;;;;;7.43;3.95;;;;;;;0.09;100.00;102166.31;10388892;28;20065;-72
2024/01/30 14:59:39;;;;;;;11.93;6.00;;;;;;;0.15;100.00;102171.84;10388986;28;20038;-72
2024/01/30 15:04:41;;;;;;;11.25;4.85;;;;;;;0.08;100.00;102170.88;10372342;28;20043;-72
2024/01/30 15:09:43;;;;;;;9.85;5.18;;;;;;;0.16;100.00;102170.81;10387717;28;20073;-73
2024/01/30 15:14:50;;;;;;;8.70;4.30;;;;;;;-0.03;100.00;102169.38;10355815;28;20453;-72
2024/01/30 15:19:53;;;;;;;11.88;4.43;;;;;;;0.06;100.00;102161.28;10372068;28;20050;-72
2024/01/30 15:24:56;;;;;;;10.85;4.72;;;;;;;-0.08;100.00;102165.53;10371511;28;20092;-73
2024/01/30 15:29:58;;;;;;;13.68;4.97;;;;;;;-0.14;100.00;102166.25;10404710;28;20046;-73
2024/01/30 15:35:03;;;;;;;10.95;4.72;;;;;;;-0.19;100.00;102171.28;10355281;28;20515;-73
2024/01/30 15:40:06;;;;;;;10.07;4.38;;;;;;;-0.07;100.00;102167.22;10339391;28;20527;-72
2024/01/30 15:45:09;;;;;;;8.98;4.40;;;;;;;-0.11;100.00;102160.50;10371375;28;20045;-72
2024/01/30 15:50:11;;;;;;;8.18;4.30;;;;;;;-0.23;100.00;102151.09;10386704;28;20052;-72
2024/01/30 15:55:15;;;;;;;8.30;3.85;;;;;;;-0.37;100.00;102158.03;10370322;28;20069;-72
2024/01/30 16:00:17;;;;;;;9.18;4.38;;;;;;;-0.29;100.00;102155.31;10386690;28;20533;-74
2024/01/30 16:05:20;;;;;;;8.82;4.28;;;;;;;-0.40;100.00;102161.06;10369825;28;20041;-71
2024/01/30 16:10:23;;;;;;;5.95;3.53;;;;;;;-0.48;100.00;102153.84;10369970;28;20041;-74
2024/01/30 16:15:26;;;;;;;9.88;4.82;;;;;;;-0.56;100.00;102155.69;10353912;28;20045;-72
2024/01/30 16:20:48;;;;;;;7.82;5.13;;;;;;;-0.68;100.00;102152.53;10389350;28;20045;-72
2024/01/30 16:26:35;;;;;;;7.22;3.88;;;;;;;-0.82;100.00;102155.91;10391888;28;20514;-71
2024/01/30 16:32:21;;;;;;;7.75;4.65;;;;;;;-0.80;100.00;102148.50;10391910;28;20042;-72
2024/01/30 16:38:04;;;;;;;12.52;6.05;;;;;;;-1.16;100.00;102145.28;10391146;28;20104;-72
2024/01/30 16:43:47;;;;;;;9.77;4.63;;;;;;;-1.00;100.00;102143.44;10380793;28;20049;-72
2024/01/30 16:49:30;;;;;;;7.13;4.10;;;;;;;-1.52;100.00;102150.97;10391706;28;20517;-72
2024/01/30 16:55:13;;;;;;;8.40;3.92;;;;;;;-1.58;100.00;102143.53;10379602;28;20108;-72
2024/01/30 17:00:16;;;;;;;8.65;4.03;;;;;;;-0.92;100.00;102135.34;10368811;28;20056;-72
2024/01/30 17:05:19;;;;;;;13.93;4.80;;;;;;;-0.98;100.00;102141.44;10383892;28;20037;-73
2024/01/30 17:10:21;;;;;;;12.32;4.82;;;;;;;-0.75;100.00;102130.78;10368316;28;20050;-74
2024/01/30 17:15:23;;;;;;;8.98;4.60;;;;;;;-0.91;100.00;102130.81;10368200;28;20409;-72
2024/01/30 17:20:26;;;;;;;12.80;5.18;;;;;;;-0.94;100.00;102115.81;10368139;28;20041;-72
2024/01/30 17:25:28;;;;;;;12.68;5.05;;;;;;;-1.09;100.00;102117.50;10401697;28;20042;-72
2024/01/30 17:30:30;;;;;;;9.40;5.28;;;;;;;-0.99;100.00;102123.56;10384782;28;20057;-72
2024/01/30 17:35:33;;;;;;;11.82;5.70;;;;;;;-0.83;100.00;102106.56;10355134;28;20037;-72
2024/01/30 17:40:35;;;;;;;10.23;4.93;;;;;;;-0.42;100.00;102104.59;10370522;28;20050;-71
2024/01/30 17:45:38;;;;;;;13.25;5.60;;;;;;;0.15;100.00;102090.88;10384608;28;20045;-73
2024/01/30 17:50:40;;;;;;;13.75;5.40;;;;;;;0.19;100.00;102102.19;10369684;28;20042;-73
2024/01/30 17:55:42;;;;;;;10.10;4.75;;;;;;;0.55;100.00;102102.47;10374817;28;20418;-72
2024/01/30 18:00:45;;;;;;;11.77;6.03;;;;;;;0.88;98.58;102098.50;10375212;28;20038;-73
2024/01/30 18:05:48;;;;;;;11.52;5.60;;;;;;;0.71;96.16;102091.53;10374889;28;20048;-72
2024/01/30 18:10:51;;;;;;;13.35;4.95;;;;;;;1.00;95.97;102079.13;10391151;28;20041;-72
2024/01/30 18:15:53;;;;;;;15.43;5.53;;;;;;;0.71;95.26;102079.91;10342941;28;20054;-72
2024/01/30 18:20:56;;;;;;;14.80;7.15;;;;;;;0.86;95.13;102072.66;10358448;28;20046;-73
2024/01/30 18:26:01;;;;;;;12.60;5.78;;;;;;;0.73;95.19;102078.69;10358101;28;20038;-74
2024/01/30 18:31:03;;;;;;;14.05;6.30;;;;;;;0.90;93.94;102079.41;10407247;28;20037;-72
2024/01/30 18:36:06;;;;;;;12.20;6.45;;;;;;;0.77;94.49;102074.59;10390043;28;20053;-72
2024/01/30 18:41:09;;;;;;;16.40;7.85;;;;;;;0.96;94.07;102072.41;10373933;28;20046;-72
2024/01/30 18:46:11;;;;;;;15.20;7.05;;;;;;;1.00;94.16;102057.50;10389540;28;20391;-71
2024/01/30 18:51:17;;;;;;;11.93;6.95;;;;;;;0.55;93.05;102059.25;10373393;28;20046;-71
2024/01/30 18:56:20;;;;;;;12.48;6.75;;;;;;;0.66;95.30;102045.28;10389771;28;20053;-71
2024/01/30 19:01:22;;;;;;;12.93;6.30;;;;;;;0.72;94.26;102039.19;10340593;28;20423;-71
2024/01/30 19:06:25;;;;;;;9.63;5.50;;;;;;;0.94;93.63;102042.03;10372826;28;20069;-71
2024/01/30 19:11:27;;;;;;;11.88;5.75;;;;;;;0.66;92.99;102031.78;10388593;28;20048;-71
2024/01/30 19:16:29;;;;;;;12.75;6.45;;;;;;;0.45;93.26;102027.06;10389351;28;20046;-73
2024/01/30 19:21:32;;;;;;;14.75;6.35;;;;;;;0.68;93.93;102018.94;10372258;28;20046;-73
2024/01/30 19:26:35;;;;;;;15.48;6.47;;;;;;;0.59;93.33;102012.78;10355877;28;20417;-73
2024/01/30 19:31:37;;;;;;;11.30;5.90;;;;;;;0.63;93.06;102005.16;10355442;28;20041;-74
2024/01/30 19:36:40;;;;;;;13.40;6.47;;;;;;;0.46;92.89;101990.94;10371636;28;20048;-73
2024/01/30 19:41:45;;;;;;;15.00;6.78;;;;;;;0.55;93.12;101995.28;10371680;28;20049;-73
2024/01/30 19:46:47;;;;;;;15.70;7.15;;;;;;;0.34;93.46;101978.88;10354742;28;20054;-73
2024/01/30 19:51:49;;;;;;;14.30;6.32;;;;;;;0.41;93.42;101979.00;10387219;28;20042;-73
2024/01/30 19:56:52;;;;;;;12.13;6.22;;;;;;;0.51;93.08;101966.09;10386812;28;20057;-73
2024/01/30 20:01:54;;;;;;;16.05;7.78;;;;;;;0.51;92.57;101968.78;10386575;28;20042;-73
2024/01/30 20:06:56;;;;;;;11.05;4.72;;;;;;;0.28;93.04;101964.25;10386333;28;20042;-72
2024/01/30 20:11:59;;;;;;;11.85;6.32;;;;;;;0.11;93.44;101961.88;10386466;28;20387;-72
2024/01/30 20:17:01;;;;;;;10.90;5.93;;;;;;;0.25;93.67;101945.72;10353966;28;20201;-72
2024/01/30 20:22:03;;;;;;;15.93;6.45;;;;;;;0.53;92.77;101940.59;10369607;28;20422;-72
2024/01/30 20:27:06;;;;;;;9.63;5.45;;;;;;;0.56;92.02;101951.03;10369812;28;20038;-72
2024/01/30 20:32:08;;;;;;;14.30;6.78;;;;;;;0.51;92.26;101939.06;10369529;28;20413;-72
2024/01/30 20:37:11;;;;;;;14.98;7.32;;;;;;;0.16;92.74;101952.19;10352868;28;20037;-73
2024/01/30 20:42:13;;;;;;;18.33;7.63;;;;;;;-0.14;93.31;101947.72;10368085;28;20049;-73
2024/01/30 20:47:15;;;;;;;15.23;7.38;;;;;;;-0.06;94.31;101951.19;10353168;28;20522;-73
2024/01/30 20:52:18;;;;;;;18.52;8.25;;;;;;;-0.11;95.62;101939.25;10369298;28;20405;-73
2024/01/30 20:57:20;;;;;;;16.75;7.22;;;;;;;0.55;94.94;101940.41;10353281;28;20513;-73
2024/01/30 21:02:22;;;;;;;20.55;9.77;;;;;;;0.45;92.85;101924.47;10372021;28;20060;-73
2024/01/30 21:07:24;;;;;;;17.10;8.15;;;;;;;0.29;93.27;101925.44;10369266;28;20067;-73
2024/01/30 21:12:28;;;;;;;13.23;7.85;;;;;;;0.23;93.82;101912.69;10368127;28;20576;-73
2024/01/30 21:17:30;;;;;;;17.95;8.70;;;;;;;0.12;93.02;101902.31;10368411;28;20046;-73
2024/01/30 21:22:32;;;;;;;22.42;10.13;;;;;;;-0.39;92.96;101904.69;10368238;28;20053;-73
2024/01/30 21:27:37;;;;;;;19.38;10.30;;;;;;;-0.58;94.25;101894.38;10341784;28;20045;-73
2024/01/30 21:32:39;;;;;;;21.60;11.05;;;;;;;-0.71;95.15;101886.00;10360177;28;20044;-71
2024/01/30 21:37:42;;;;;;;22.92;9.95;;;;;;;-0.45;95.99;101875.75;10376322;28;20413;-72
2024/01/30 21:42:45;;;;;;;20.77;10.02;;;;;;;-0.21;96.60;101868.50;10392514;28;20559;-72
2024/01/30 21:47:47;;;;;;;20.70;9.25;;;;;;;0.04;96.24;101867.31;10359470;28;20058;-72
2024/01/30 21:52:51;;;;;;;21.00;9.07;;;;;;;0.36;94.68;101852.69;10359009;28;20042;-72
2024/01/30 21:57:54;;;;;;;20.40;9.63;;;;;;;0.05;93.47;101844.69;10359804;28;20030;-72
2024/01/30 22:02:56;;;;;;;23.40;10.60;;;;;;;-0.40;93.39;101840.16;10375278;28;20038;-72
2024/01/30 22:08:00;;;;;;;29.30;10.40;;;;;;;-0.59;94.16;101822.59;10358404;28;20501;-72
2024/01/30 22:13:02;;;;;;;17.67;9.55;;;;;;;-0.77;95.40;101805.88;10359217;28;20042;-72
2024/01/30 22:18:04;;;;;;;20.02;9.88;;;;;;;-1.16;96.26;101795.16;10390988;28;20041;-72
2024/01/30 22:23:07;;;;;;;24.80;10.95;;;;;;;-1.10;97.90;101805.22;10374249;28;20033;-73
2024/01/30 22:28:09;;;;;;;20.83;9.68;;;;;;;-1.20;97.60;101792.00;10374216;28;20425;-73
2024/01/30 22:33:11;;;;;;;14.38;9.25;;;;;;;-1.67;98.16;101794.69;10373944;28;20044;-73
2024/01/30 22:38:13;;;;;;;20.50;9.60;;;;;;;-1.92;98.63;101778.59;10356552;28;20068;-72
2024/01/30 22:43:16;;;;;;;16.30;9.40;;;;;;;-1.79;99.86;101780.75;10389440;28;20042;-73
2024/01/30 22:48:18;;;;;;;21.60;9.70;;;;;;;-2.01;99.83;101778.78;10373564;28;20033;-72
2024/01/30 22:53:20;;;;;;;22.15;9.80;;;;;;;-1.68;100.00;101783.09;10389899;28;20064;-72
2024/01/30 22:58:22;;;;;;;18.90;9.55;;;;;;;-1.53;100.00;101778.66;10372833;28;20048;-72
2024/01/30 23:03:25;;;;;;;17.50;8.40;;;;;;;-1.60;99.65;101780.34;10388992;28;20545;-73
2024/01/30 23:08:27;;;;;;;21.55;8.98;;;;;;;-1.63;99.58;101764.56;10372782;28;20044;-73
2024/01/30 23:13:29;;;;;;;18.45;8.60;;;;;;;-1.66;99.48;101759.53;10388590;28;20046;-72